createdAt,value
2023-03-04T00:02:16.314Z,13.84
2023-03-04T00:04:43.013Z,13.71
2023-03-04T00:07:09.559Z,13.81
2023-03-04T00:09:36.472Z,14.06
2023-03-04T00:12:03.106Z,13.97
2023-03-04T00:14:30.588Z,13.98
2023-03-04T00:16:57.341Z,13.65
2023-03-04T00:19:23.979Z,13.97
2023-03-04T00:21:50.521Z,13.88
2023-03-04T00:24:17.174Z,13.37
2023-03-04T00:26:43.923Z,13.24
2023-03-04T00:29:10.900Z,13.47
2023-03-04T00:31:37.689Z,13.82
2023-03-04T00:34:04.508Z,13.80
2023-03-04T00:36:31.108Z,14.03
2023-03-04T00:38:57.692Z,13.90
2023-03-04T00:41:24.224Z,13.93
2023-03-04T00:43:51.025Z,13.74
2023-03-04T00:46:17.682Z,13.57
2023-03-04T00:48:44.248Z,13.52
2023-03-04T00:51:10.726Z,13.43
2023-03-04T00:53:37.448Z,13.67
2023-03-04T00:56:04.230Z,13.58
2023-03-04T00:58:31.018Z,13.53
2023-03-04T01:00:58.275Z,13.80
2023-03-04T01:03:26.790Z,13.89
2023-03-04T01:05:53.284Z,13.92
2023-03-04T01:08:19.834Z,13.95
2023-03-04T01:10:46.325Z,14.24
2023-03-04T01:13:12.958Z,14.24
2023-03-04T01:15:39.496Z,14.39
2023-03-04T01:18:06.120Z,14.39
2023-03-04T01:20:32.635Z,14.30
2023-03-04T01:22:59.346Z,14.09
2023-03-04T01:25:25.900Z,13.98
2023-03-04T01:27:52.489Z,14.11
2023-03-04T01:30:19.973Z,14.23
2023-03-04T01:32:46.502Z,14.17
2023-03-04T01:35:12.993Z,13.95
2023-03-04T01:37:39.558Z,14.05
2023-03-04T01:40:06.690Z,14.15
2023-03-04T01:42:35.722Z,14.00
2023-03-04T01:45:02.960Z,14.11
2023-03-04T01:47:32.693Z,14.09
2023-03-04T01:50:02.862Z,13.96
2023-03-04T01:52:29.471Z,13.86
2023-03-04T01:54:57.305Z,13.65
2023-03-04T01:57:26.094Z,13.66
2023-03-04T02:00:25.975Z,13.91
2023-03-04T02:02:55.586Z,13.97
2023-03-04T02:05:22.543Z,13.95
2023-03-04T02:07:51.875Z,13.95
2023-03-04T02:10:18.893Z,13.65
2023-03-04T02:12:45.789Z,13.74
2023-03-04T02:15:12.538Z,13.93
2023-03-04T02:17:39.410Z,13.84
2023-03-04T02:20:09.344Z,13.80
2023-03-04T02:22:40.251Z,13.23
2023-03-04T02:25:14.113Z,13.38
2023-03-04T02:27:40.734Z,13.79
2023-03-04T02:30:07.998Z,13.79
2023-03-04T02:32:34.741Z,13.89
2023-03-04T02:35:01.509Z,13.67
2023-03-04T02:37:28.229Z,13.57
2023-03-04T02:39:55.781Z,13.75
2023-03-04T02:42:22.404Z,13.77
2023-03-04T02:44:50.330Z,13.59
2023-03-04T02:47:19.211Z,13.67
2023-03-04T02:49:47.376Z,13.27
2023-03-04T02:52:19.441Z,13.30
2023-03-04T02:54:46.270Z,13.24
2023-03-04T02:57:14.785Z,13.27
2023-03-04T02:59:43.934Z,13.21
2023-03-04T03:02:15.389Z,13.40
2023-03-04T03:04:42.232Z,13.52
2023-03-04T03:07:12.324Z,13.48
2023-03-04T03:09:39.319Z,13.55
2023-03-04T03:12:06.214Z,13.66
2023-03-04T03:14:33.473Z,13.78
2023-03-04T03:17:00.778Z,13.63
2023-03-04T03:19:27.433Z,13.71
2023-03-04T03:21:54.866Z,13.69
2023-03-04T03:24:21.533Z,13.66
2023-03-04T03:26:48.177Z,13.75
2023-03-04T03:29:14.702Z,13.55
2023-03-04T03:31:41.468Z,13.40
2023-03-04T03:34:08.487Z,13.00
2023-03-04T03:36:35.085Z,13.33
2023-03-04T03:39:01.624Z,13.26
2023-03-04T03:41:28.230Z,13.40
2023-03-04T03:43:54.742Z,13.68
2023-03-04T03:46:21.328Z,13.61
2023-03-04T03:48:47.823Z,13.65
2023-03-04T03:51:14.420Z,13.27
2023-03-04T03:53:40.878Z,13.30
2023-03-04T03:56:07.629Z,13.19
2023-03-04T03:58:34.070Z,13.37
2023-03-04T04:01:00.630Z,13.33
2023-03-04T04:03:27.176Z,13.49
2023-03-04T04:05:53.840Z,13.57
2023-03-04T04:08:20.490Z,13.57
2023-03-04T04:10:47.299Z,13.47
2023-03-04T04:13:14.176Z,13.55
2023-03-04T04:15:40.898Z,13.52
2023-03-04T04:18:07.737Z,13.37
2023-03-04T04:20:35.045Z,12.96
2023-03-04T04:23:02.250Z,12.77
2023-03-04T04:25:29.451Z,13.18
2023-03-04T04:27:55.954Z,13.36
2023-03-04T04:30:22.517Z,13.53
2023-03-04T04:32:49.025Z,13.57
2023-03-04T04:35:15.676Z,13.26
2023-03-04T04:37:42.245Z,13.32
2023-03-04T04:40:09.744Z,13.10
2023-03-04T04:42:36.217Z,12.93
2023-03-04T04:45:03.273Z,12.80
2023-03-04T04:47:29.768Z,12.72
2023-03-04T04:49:56.377Z,13.26
2023-03-04T04:52:22.906Z,13.39
2023-03-04T04:54:49.420Z,13.11
2023-03-04T04:57:15.947Z,13.35
2023-03-04T04:59:42.521Z,13.32
2023-03-04T05:02:09.021Z,13.06
2023-03-04T05:04:35.590Z,13.27
2023-03-04T05:07:02.112Z,13.42
2023-03-04T05:09:28.726Z,13.33
2023-03-04T05:11:55.238Z,13.25
2023-03-04T05:14:22.235Z,13.30
2023-03-04T05:16:48.690Z,13.21
2023-03-04T05:19:15.389Z,13.21
2023-03-04T05:21:41.875Z,13.14
2023-03-04T05:24:08.594Z,13.16
2023-03-04T05:26:35.270Z,13.17
2023-03-04T05:29:02.157Z,13.09
2023-03-04T05:31:28.724Z,13.14
2023-03-04T05:33:55.373Z,13.17
2023-03-04T05:36:22.049Z,13.12
2023-03-04T05:38:48.601Z,12.98
2023-03-04T05:41:15.193Z,12.90
2023-03-04T05:43:44.332Z,12.87
2023-03-04T05:46:15.066Z,12.88
2023-03-04T05:48:42.473Z,12.79
2023-03-04T05:51:09.606Z,12.95
2023-03-04T05:53:40.075Z,13.16
2023-03-04T05:56:11.735Z,13.34
2023-03-04T05:58:38.566Z,13.45
2023-03-04T06:01:05.901Z,13.34
2023-03-04T06:03:33.057Z,13.05
2023-03-04T06:05:59.618Z,13.01
2023-03-04T06:08:27.103Z,12.96
2023-03-04T06:10:55.947Z,13.10
2023-03-04T06:13:23.280Z,13.00
2023-03-04T06:15:54.994Z,13.03
2023-03-04T06:18:22.591Z,13.18
2023-03-04T06:20:49.211Z,13.18
2023-03-04T06:23:16.255Z,13.30
2023-03-04T06:25:42.988Z,13.29
2023-03-04T06:28:09.564Z,13.23
2023-03-04T06:30:36.073Z,13.08
2023-03-04T06:33:02.736Z,13.23
2023-03-04T06:35:29.302Z,13.68
2023-03-04T06:37:55.839Z,13.55
2023-03-04T06:40:22.357Z,13.38
2023-03-04T06:42:48.917Z,12.93
2023-03-04T06:45:15.430Z,13.16
2023-03-04T06:47:42.093Z,13.09
2023-03-04T06:50:09.384Z,13.13
2023-03-04T06:52:36.104Z,13.25
2023-03-04T06:55:02.598Z,13.12
2023-03-04T06:57:29.135Z,13.23
2023-03-04T06:59:55.708Z,13.09
2023-03-04T07:02:22.660Z,12.97
2023-03-04T07:04:49.291Z,13.42
2023-03-04T07:07:15.952Z,13.75
2023-03-04T07:09:42.442Z,13.65
2023-03-04T07:12:09.023Z,13.51
2023-03-04T07:14:35.482Z,13.34
2023-03-04T07:17:02.089Z,13.01
2023-03-04T07:19:28.639Z,12.69
2023-03-04T07:21:55.300Z,12.91
2023-03-04T07:24:21.781Z,13.04
2023-03-04T07:26:48.361Z,13.05
2023-03-04T07:29:15.031Z,13.12
2023-03-04T07:31:41.752Z,13.12
2023-03-04T07:34:12.050Z,13.11
2023-03-04T07:36:38.606Z,13.27
2023-03-04T07:39:06.069Z,13.65
2023-03-04T07:41:36.113Z,13.88
2023-03-04T07:44:03.981Z,13.71
2023-03-04T07:46:30.658Z,13.76
2023-03-04T07:48:57.566Z,13.45
2023-03-04T07:51:25.958Z,13.29
2023-03-04T07:53:56.934Z,13.52
2023-03-04T07:56:26.627Z,13.45
2023-03-04T07:58:53.684Z,13.31
2023-03-04T08:01:32.049Z,13.77
2023-03-04T08:03:59.369Z,13.38
2023-03-04T08:06:27.019Z,13.21
2023-03-04T08:08:59.520Z,13.57
2023-03-04T08:11:27.370Z,13.84
2023-03-04T08:13:54.557Z,13.33
2023-03-04T08:16:23.475Z,13.45
2023-03-04T08:18:53.357Z,13.77
2023-03-04T08:21:22.309Z,13.95
2023-03-04T08:23:50.063Z,13.98
2023-03-04T08:26:30.054Z,13.93
2023-03-04T08:28:57.622Z,13.70
2023-03-04T08:31:24.499Z,13.74
2023-03-04T08:33:52.556Z,13.63
2023-03-04T08:36:19.196Z,13.62
2023-03-04T08:38:45.750Z,13.39
2023-03-04T08:41:12.648Z,13.22
2023-03-04T08:43:39.585Z,13.24
2023-03-04T08:46:06.239Z,13.03
2023-03-04T08:48:33.562Z,13.03
2023-03-04T08:51:00.273Z,13.10
2023-03-04T08:53:26.880Z,12.94
2023-03-04T08:55:53.420Z,13.39
2023-03-04T08:58:20.253Z,13.46
2023-03-04T09:00:48.798Z,13.48
2023-03-04T09:03:16.635Z,13.44
2023-03-04T09:05:44.856Z,13.36
2023-03-04T09:08:11.446Z,13.47
2023-03-04T09:10:37.942Z,13.56
2023-03-04T09:13:06.128Z,13.63
2023-03-04T09:15:35.917Z,13.81
2023-03-04T09:18:03.667Z,13.90
2023-03-04T09:20:31.406Z,13.82
2023-03-04T09:22:58.035Z,13.94
2023-03-04T09:25:24.543Z,14.10
2023-03-04T09:27:51.090Z,14.43
2023-03-04T09:30:17.900Z,14.44
2023-03-04T09:32:44.479Z,14.19
2023-03-04T09:35:11.110Z,13.78
2023-03-04T09:37:41.176Z,13.84
2023-03-04T09:40:16.120Z,14.02
2023-03-04T09:42:50.684Z,14.01
2023-03-04T09:45:23.508Z,14.04
2023-03-04T09:47:53.087Z,14.10
2023-03-04T09:50:20.842Z,14.03
2023-03-04T09:53:17.658Z,13.73
2023-03-04T09:55:50.285Z,13.90
2023-03-04T09:59:13.985Z,13.81
2023-03-04T10:01:52.102Z,14.09
2023-03-04T10:04:26.593Z,14.16
2023-03-04T10:06:54.541Z,14.24
2023-03-04T10:09:47.178Z,14.35
2023-03-04T10:12:17.249Z,14.39
2023-03-04T10:14:51.245Z,14.31
2023-03-04T10:17:43.460Z,14.54
2023-03-04T10:20:21.281Z,14.35
2023-03-04T10:22:57.963Z,14.31
2023-03-04T10:25:27.033Z,14.32
2023-03-04T10:27:58.461Z,14.23
2023-03-04T10:30:49.512Z,14.33
2023-03-04T10:33:22.006Z,14.16
2023-03-04T10:35:55.825Z,13.84
2023-03-04T10:38:23.435Z,14.01
2023-03-04T10:40:50.122Z,14.28
2023-03-04T10:43:21.311Z,14.07
2023-03-04T10:45:49.046Z,14.09
2023-03-04T10:48:27.801Z,14.18
2023-03-04T10:50:54.783Z,14.45
2023-03-04T10:53:39.336Z,14.35
2023-03-04T10:56:46.259Z,14.38
2023-03-04T10:59:36.349Z,14.47
2023-03-04T11:02:16.348Z,14.55
2023-03-04T11:04:48.814Z,14.41
2023-03-04T11:07:15.926Z,14.48
2023-03-04T11:09:44.740Z,14.68
2023-03-04T11:12:14.753Z,14.79
2023-03-04T11:14:53.945Z,14.86
2023-03-04T11:17:29.169Z,15.08
2023-03-04T11:20:30.685Z,15.08
2023-03-04T11:23:04.488Z,15.01
2023-03-04T11:25:35.529Z,14.78
2023-03-04T11:28:43.851Z,14.92
2023-03-04T11:31:20.208Z,15.10
2023-03-04T11:33:56.615Z,14.91
2023-03-04T11:36:31.307Z,14.81
2023-03-04T11:38:58.578Z,15.13
2023-03-04T11:41:35.627Z,15.03
2023-03-04T11:44:06.793Z,14.98
2023-03-04T11:46:42.516Z,15.03
2023-03-04T11:49:33.358Z,14.91
2023-03-04T11:52:12.484Z,14.87
2023-03-04T11:55:20.872Z,14.86
2023-03-04T11:57:55.353Z,15.15
2023-03-04T12:00:40.896Z,15.02
2023-03-04T12:03:46.523Z,15.32
2023-03-04T12:06:35.496Z,15.27
2023-03-04T12:09:26.450Z,15.01
2023-03-04T12:12:35.010Z,14.89
2023-03-04T12:15:19.880Z,14.54
2023-03-04T12:18:08.246Z,14.71
2023-03-04T12:20:37.587Z,14.58
2023-03-04T12:23:04.056Z,14.63
2023-03-04T12:25:43.610Z,14.65
2023-03-04T12:28:36.562Z,14.49
2023-03-04T12:31:30.306Z,14.76
2023-03-04T12:34:33.521Z,14.70
2023-03-04T12:37:15.774Z,14.73
2023-03-04T12:40:09.970Z,15.15
2023-03-04T12:42:39.895Z,14.97
2023-03-04T12:45:22.141Z,15.01
2023-03-04T12:48:07.068Z,15.13
2023-03-04T12:50:39.211Z,15.35
2023-03-04T12:53:33.519Z,15.41
2023-03-04T12:56:02.010Z,15.28
2023-03-04T12:58:32.293Z,15.05
2023-03-04T13:01:25.894Z,15.32
2023-03-04T13:04:01.726Z,15.40
2023-03-04T13:07:00.839Z,15.19
2023-03-04T13:09:38.149Z,15.23
2023-03-04T13:12:21.980Z,15.21
2023-03-04T13:15:12.274Z,15.36
2023-03-04T13:18:03.818Z,15.41
2023-03-04T13:20:30.369Z,15.29
2023-03-04T13:23:04.287Z,15.44
2023-03-04T13:25:48.284Z,15.75
2023-03-04T13:28:19.085Z,16.17
2023-03-04T13:30:45.557Z,15.91
2023-03-04T13:33:13.418Z,16.04
2023-03-04T13:35:49.202Z,15.83
2023-03-04T13:38:28.367Z,15.79
2023-03-04T13:41:14.672Z,15.75
2023-03-04T13:43:55.858Z,15.65
2023-03-04T13:46:27.385Z,15.16
2023-03-04T13:48:57.033Z,15.36
2023-03-04T13:51:41.267Z,15.72
2023-03-04T13:54:15.863Z,15.73
2023-03-04T13:56:47.773Z,15.77
2023-03-04T13:59:20.309Z,15.93
2023-03-04T14:01:46.842Z,16.10
2023-03-04T14:04:16.099Z,16.17
2023-03-04T14:06:44.807Z,16.34
2023-03-04T14:09:16.469Z,16.27
2023-03-04T14:11:43.969Z,16.07
2023-03-04T14:14:14.739Z,16.34
2023-03-04T14:16:50.217Z,16.19
2023-03-04T14:19:27.782Z,16.32
2023-03-04T14:21:54.681Z,16.28
2023-03-04T14:24:22.524Z,16.31
2023-03-04T14:26:49.948Z,16.18
2023-03-04T14:29:29.288Z,15.98
2023-03-04T14:31:57.949Z,15.76
2023-03-04T14:34:46.977Z,15.86
2023-03-04T14:37:31.174Z,15.80
2023-03-04T14:39:58.794Z,15.94
2023-03-04T14:42:31.984Z,15.99
2023-03-04T14:45:01.081Z,15.94
2023-03-04T14:47:45.331Z,16.08
2023-03-04T14:50:22.338Z,16.13
2023-03-04T14:52:51.947Z,15.96
2023-03-04T14:55:22.817Z,16.12
2023-03-04T14:58:00.765Z,15.94
2023-03-04T15:00:36.048Z,16.05
2023-03-04T15:03:23.653Z,16.12
2023-03-04T15:05:52.715Z,15.89
2023-03-04T15:08:29.362Z,16.01
2023-03-04T15:10:59.852Z,15.94
2023-03-04T15:13:46.495Z,15.85
2023-03-04T15:16:16.462Z,15.86
2023-03-04T15:19:05.750Z,16.00
2023-03-04T15:21:40.901Z,15.95
2023-03-04T15:24:09.402Z,16.08
2023-03-04T15:26:40.080Z,15.89
2023-03-04T15:29:14.758Z,15.82
2023-03-04T15:31:43.557Z,15.75
2023-03-04T15:34:15.178Z,15.94
2023-03-04T15:36:45.434Z,15.95
2023-03-04T15:39:16.195Z,15.76
2023-03-04T15:41:43.326Z,15.83
2023-03-04T15:44:11.680Z,15.47
2023-03-04T15:46:38.427Z,15.40
2023-03-04T15:49:05.078Z,15.40
2023-03-04T15:51:31.730Z,15.50
2023-03-04T15:53:59.954Z,15.55
2023-03-04T15:56:29.878Z,15.36
2023-03-04T15:59:02.313Z,15.44
2023-03-04T16:01:29.634Z,15.29
2023-03-04T16:03:56.477Z,15.45
2023-03-04T16:06:27.480Z,15.73
2023-03-04T16:08:54.019Z,15.52
2023-03-04T16:11:23.139Z,15.49
2023-03-04T16:13:49.849Z,15.31
2023-03-04T16:16:17.156Z,15.50
2023-03-04T16:18:44.951Z,15.56
2023-03-04T16:21:18.235Z,15.87
2023-03-04T16:23:47.635Z,15.63
2023-03-04T16:26:17.031Z,15.35
2023-03-04T16:28:44.345Z,15.48
2023-03-04T16:31:13.194Z,15.66
2023-03-04T16:33:40.200Z,15.57
2023-03-04T16:36:15.699Z,15.50
2023-03-04T16:38:43.031Z,15.17
2023-03-04T16:41:15.087Z,14.98
2023-03-04T16:43:42.879Z,15.20
2023-03-04T16:46:13.933Z,14.90
2023-03-04T16:48:40.938Z,15.09
2023-03-04T16:51:19.369Z,14.97
2023-03-04T16:53:56.387Z,15.02
2023-03-04T16:56:23.551Z,14.98
2023-03-04T16:58:50.121Z,14.99
2023-03-04T17:01:20.439Z,15.04
2023-03-04T17:03:47.286Z,14.98
2023-03-04T17:06:15.346Z,14.84
2023-03-04T17:08:42.226Z,14.91
2023-03-04T17:11:12.363Z,14.82
2023-03-04T17:13:39.059Z,14.82
2023-03-04T17:16:05.907Z,14.95
2023-03-04T17:18:32.885Z,15.08
2023-03-04T17:21:04.814Z,15.02
2023-03-04T17:23:31.434Z,15.09
2023-03-04T17:25:59.125Z,14.86
2023-03-04T17:28:26.072Z,14.83
2023-03-04T17:30:52.762Z,14.98
2023-03-04T17:33:19.750Z,14.81
2023-03-04T17:35:46.612Z,14.66
2023-03-04T17:38:14.394Z,14.63
2023-03-04T17:40:41.525Z,14.46
2023-03-04T17:43:11.407Z,14.65
2023-03-04T17:45:42.080Z,14.70
2023-03-04T17:48:14.951Z,14.87
2023-03-04T17:50:49.690Z,14.66
2023-03-04T17:53:16.537Z,14.73
2023-03-04T17:55:54.357Z,14.80
2023-03-04T17:58:21.468Z,14.79
2023-03-04T18:00:49.529Z,14.85
2023-03-04T18:03:16.778Z,14.95
2023-03-04T18:05:43.348Z,14.94
2023-03-04T18:08:09.889Z,15.09
2023-03-04T18:10:36.695Z,15.15
2023-03-04T18:13:03.351Z,14.95
2023-03-04T18:15:30.119Z,14.65
2023-03-04T18:17:56.644Z,14.63
2023-03-04T18:20:23.130Z,14.86
2023-03-04T18:22:49.691Z,14.89
2023-03-04T18:25:16.794Z,14.96
2023-03-04T18:27:43.845Z,14.98
2023-03-04T18:30:13.805Z,15.03
2023-03-04T18:32:51.423Z,15.12
2023-03-04T18:35:19.773Z,15.06
2023-03-04T18:37:47.012Z,15.14
2023-03-04T18:40:14.412Z,15.25
2023-03-04T18:42:44.062Z,15.19
2023-03-04T18:45:12.745Z,15.07
2023-03-04T18:47:41.710Z,14.91
2023-03-04T18:50:09.604Z,14.73
2023-03-04T18:52:36.712Z,14.68
2023-03-04T18:55:03.636Z,14.50
2023-03-04T18:57:30.882Z,14.42
2023-03-04T18:59:59.964Z,14.52
2023-03-04T19:02:36.435Z,14.62
2023-03-04T19:05:07.472Z,14.38
2023-03-04T19:07:34.033Z,14.12
2023-03-04T19:10:00.499Z,14.25
2023-03-04T19:12:27.146Z,14.32
2023-03-04T19:14:53.637Z,14.41
2023-03-04T19:17:20.174Z,14.68
2023-03-04T19:19:46.688Z,14.52
2023-03-04T19:22:13.219Z,14.58
2023-03-04T19:24:39.826Z,14.44
2023-03-04T19:27:06.403Z,14.33
2023-03-04T19:29:32.940Z,14.61
2023-03-04T19:31:59.668Z,14.44
2023-03-04T19:34:26.187Z,14.48
2023-03-04T19:36:52.736Z,14.00
2023-03-04T19:39:19.418Z,14.01
2023-03-04T19:41:46.046Z,14.15
2023-03-04T19:44:12.532Z,14.20
2023-03-04T19:46:39.112Z,14.16
2023-03-04T19:49:05.796Z,13.97
2023-03-04T19:51:32.733Z,14.13
2023-03-04T19:54:00.056Z,14.29
2023-03-04T19:56:26.618Z,13.90
2023-03-04T19:58:56.700Z,14.11
2023-03-04T20:01:28.163Z,14.12
2023-03-04T20:03:56.698Z,14.06
2023-03-04T20:06:23.895Z,13.87
2023-03-04T20:08:51.285Z,14.05
2023-03-04T20:11:19.026Z,13.98
2023-03-04T20:13:45.674Z,14.10
2023-03-04T20:16:13.027Z,14.19
2023-03-04T20:18:40.597Z,14.22
2023-03-04T20:21:07.767Z,14.03
2023-03-04T20:23:34.995Z,14.00
2023-03-04T20:26:01.865Z,14.15
2023-03-04T20:28:28.732Z,14.17
2023-03-04T20:31:26.181Z,13.99
2023-03-04T20:33:54.511Z,14.09
2023-03-04T20:36:23.725Z,14.23
2023-03-04T20:38:57.971Z,14.20
2023-03-04T20:41:28.311Z,14.21
2023-03-04T20:43:54.819Z,14.14
2023-03-04T20:46:38.886Z,14.14
2023-03-04T20:49:09.008Z,13.90
2023-03-04T20:51:36.357Z,13.93
2023-03-04T20:54:04.045Z,13.70
2023-03-04T20:56:31.385Z,13.68
2023-03-04T20:59:00.512Z,13.73
2023-03-04T21:01:27.125Z,13.66
2023-03-04T21:03:53.871Z,13.85
2023-03-04T21:06:20.407Z,13.91
2023-03-04T21:08:47.133Z,13.80
2023-03-04T21:11:15.330Z,13.97
2023-03-04T21:13:42.993Z,14.16
2023-03-04T21:16:14.823Z,14.21
2023-03-04T21:18:43.292Z,14.12
2023-03-04T21:21:24.966Z,14.28
2023-03-04T21:23:53.488Z,14.16
2023-03-04T21:26:22.153Z,13.93
2023-03-04T21:28:49.581Z,14.09
2023-03-04T21:31:20.657Z,13.89
2023-03-04T21:33:47.536Z,13.87
2023-03-04T21:36:14.607Z,14.10
2023-03-04T21:38:42.682Z,14.00
2023-03-04T21:41:17.279Z,14.21
2023-03-04T21:43:44.242Z,14.04
2023-03-04T21:46:12.501Z,14.06
2023-03-04T21:48:39.240Z,14.10
2023-03-04T21:51:08.037Z,14.21
2023-03-04T21:53:35.483Z,14.15
2023-03-04T21:56:03.033Z,14.11
2023-03-04T21:58:30.394Z,14.15
2023-03-04T22:00:58.874Z,14.10
2023-03-04T22:03:27.003Z,14.08
2023-03-04T22:05:53.504Z,13.88
2023-03-04T22:08:20.978Z,13.93
2023-03-04T22:10:47.840Z,14.04
2023-03-04T22:13:15.553Z,13.99
2023-03-04T22:15:45.442Z,14.14
2023-03-04T22:18:14.273Z,14.16
2023-03-04T22:20:43.484Z,14.34
2023-03-04T22:23:10.744Z,14.06
2023-03-04T22:25:40.678Z,13.89
2023-03-04T22:28:08.512Z,13.72
2023-03-04T22:30:35.707Z,13.50
2023-03-04T22:33:02.454Z,13.55
2023-03-04T22:35:29.095Z,13.72
2023-03-04T22:37:55.678Z,13.90
2023-03-04T22:40:22.436Z,13.44
2023-03-04T22:42:49.555Z,13.42
2023-03-04T22:45:17.790Z,13.53
2023-03-04T22:47:50.226Z,13.59
2023-03-04T22:50:18.390Z,13.55
2023-03-04T22:52:47.106Z,13.39
2023-03-04T22:55:15.645Z,13.31
2023-03-04T22:57:43.025Z,13.16
2023-03-04T23:00:30.680Z,13.08
2023-03-04T23:02:58.264Z,13.12
2023-03-04T23:05:25.052Z,13.20
2023-03-04T23:07:52.314Z,13.28
2023-03-04T23:10:22.419Z,13.33
2023-03-04T23:12:49.779Z,13.42
2023-03-04T23:15:18.481Z,13.12
2023-03-04T23:17:46.110Z,13.19
2023-03-04T23:20:16.202Z,13.21
2023-03-04T23:22:43.380Z,13.15
2023-03-04T23:25:10.070Z,13.47
2023-03-04T23:27:38.323Z,13.62
2023-03-04T23:30:07.244Z,13.35
2023-03-04T23:32:33.847Z,13.15
2023-03-04T23:35:00.424Z,12.92
2023-03-04T23:37:27.351Z,12.78
2023-03-04T23:39:53.887Z,12.49
2023-03-04T23:42:20.424Z,12.43
2023-03-04T23:44:46.892Z,12.27
2023-03-04T23:47:13.431Z,12.16
2023-03-04T23:49:40.046Z,12.11
2023-03-04T23:52:06.827Z,12.31
2023-03-04T23:54:33.458Z,12.43
2023-03-04T23:57:00.837Z,12.47
2023-03-04T23:59:28.604Z,12.49
